sensor_id;sensor_type;location;lat;lon;timestamp;temperature;humidity
47336;DHT22;33068;51.990;5.926;2023-06-04T00:00:23;13.20;95.60
47336;DHT22;33068;51.990;5.926;2023-06-04T00:02:51;13.10;95.80
47336;DHT22;33068;51.990;5.926;2023-06-04T00:05:18;13.10;95.90
47336;DHT22;33068;51.990;5.926;2023-06-04T00:07:45;13.00;96.00
47336;DHT22;33068;51.990;5.926;2023-06-04T00:10:12;13.00;96.30
47336;DHT22;33068;51.990;5.926;2023-06-04T00:12:45;12.70;96.40
47336;DHT22;33068;51.990;5.926;2023-06-04T00:15:14;12.90;96.40
47336;DHT22;33068;51.990;5.926;2023-06-04T00:17:42;12.90;96.80
47336;DHT22;33068;51.990;5.926;2023-06-04T00:20:13;12.80;96.70
47336;DHT22;33068;51.990;5.926;2023-06-04T00:22:43;12.70;96.70
47336;DHT22;33068;51.990;5.926;2023-06-04T00:25:12;12.80;96.70
47336;DHT22;33068;51.990;5.926;2023-06-04T00:27:51;12.70;96.80
47336;DHT22;33068;51.990;5.926;2023-06-04T00:30:20;12.70;96.70
47336;DHT22;33068;51.990;5.926;2023-06-04T00:32:56;12.70;96.70
47336;DHT22;33068;51.990;5.926;2023-06-04T00:35:26;12.70;96.70
47336;DHT22;33068;51.990;5.926;2023-06-04T00:37:53;12.70;96.80
47336;DHT22;33068;51.990;5.926;2023-06-04T00:40:23;12.70;96.70
47336;DHT22;33068;51.990;5.926;2023-06-04T00:42:52;12.60;96.70
47336;DHT22;33068;51.990;5.926;2023-06-04T00:45:22;12.60;96.80
47336;DHT22;33068;51.990;5.926;2023-06-04T00:47:51;12.60;96.80
47336;DHT22;33068;51.990;5.926;2023-06-04T00:50:22;12.60;96.90
47336;DHT22;33068;51.990;5.926;2023-06-04T00:52:50;12.50;96.90
47336;DHT22;33068;51.990;5.926;2023-06-04T00:55:18;12.50;96.90
47336;DHT22;33068;51.990;5.926;2023-06-04T00:57:47;12.40;97.00
47336;DHT22;33068;51.990;5.926;2023-06-04T01:00:15;12.40;97.10
47336;DHT22;33068;51.990;5.926;2023-06-04T01:02:47;12.40;97.10
47336;DHT22;33068;51.990;5.926;2023-06-04T01:05:24;12.40;97.00
47336;DHT22;33068;51.990;5.926;2023-06-04T01:07:56;12.30;97.60
47336;DHT22;33068;51.990;5.926;2023-06-04T01:10:36;12.20;97.50
47336;DHT22;33068;51.990;5.926;2023-06-04T01:13:05;12.20;97.40
47336;DHT22;33068;51.990;5.926;2023-06-04T01:15:32;12.20;97.40
47336;DHT22;33068;51.990;5.926;2023-06-04T01:18:02;12.20;97.40
47336;DHT22;33068;51.990;5.926;2023-06-04T01:20:38;12.20;97.20
47336;DHT22;33068;51.990;5.926;2023-06-04T01:23:28;12.20;96.90
47336;DHT22;33068;51.990;5.926;2023-06-04T01:26:01;12.20;97.00
47336;DHT22;33068;51.990;5.926;2023-06-04T01:28:33;12.20;96.60
47336;DHT22;33068;51.990;5.926;2023-06-04T01:31:03;12.30;96.80
47336;DHT22;33068;51.990;5.926;2023-06-04T01:33:35;12.20;96.80
47336;DHT22;33068;51.990;5.926;2023-06-04T01:36:02;12.20;96.80
47336;DHT22;33068;51.990;5.926;2023-06-04T01:38:29;12.10;97.30
47336;DHT22;33068;51.990;5.926;2023-06-04T01:41:02;12.10;97.10
47336;DHT22;33068;51.990;5.926;2023-06-04T01:43:32;12.10;97.60
47336;DHT22;33068;51.990;5.926;2023-06-04T01:46:01;12.00;97.70
47336;DHT22;33068;51.990;5.926;2023-06-04T01:48:29;12.00;97.50
47336;DHT22;33068;51.990;5.926;2023-06-04T01:51:01;11.90;97.40
47336;DHT22;33068;51.990;5.926;2023-06-04T01:53:32;11.90;97.90
47336;DHT22;33068;51.990;5.926;2023-06-04T01:55:59;11.90;97.50
47336;DHT22;33068;51.990;5.926;2023-06-04T01:58:27;11.90;97.60
47336;DHT22;33068;51.990;5.926;2023-06-04T02:00:57;11.80;97.70
47336;DHT22;33068;51.990;5.926;2023-06-04T02:03:32;11.80;97.60
47336;DHT22;33068;51.990;5.926;2023-06-04T02:06:04;11.70;97.70
47336;DHT22;33068;51.990;5.926;2023-06-04T02:08:33;11.80;97.60
47336;DHT22;33068;51.990;5.926;2023-06-04T02:11:01;11.80;98.10
47336;DHT22;33068;51.990;5.926;2023-06-04T02:13:33;11.80;97.60
47336;DHT22;33068;51.990;5.926;2023-06-04T02:16:01;11.80;97.70
47336;DHT22;33068;51.990;5.926;2023-06-04T02:18:29;11.80;97.80
47336;DHT22;33068;51.990;5.926;2023-06-04T02:20:56;11.80;97.70
47336;DHT22;33068;51.990;5.926;2023-06-04T02:23:25;11.80;97.70
47336;DHT22;33068;51.990;5.926;2023-06-04T02:25:55;11.80;97.70
47336;DHT22;33068;51.990;5.926;2023-06-04T02:28:22;11.80;97.70
47336;DHT22;33068;51.990;5.926;2023-06-04T02:30:50;11.70;97.90
47336;DHT22;33068;51.990;5.926;2023-06-04T02:33:17;11.80;97.70
47336;DHT22;33068;51.990;5.926;2023-06-04T02:35:44;11.70;97.90
47336;DHT22;33068;51.990;5.926;2023-06-04T02:38:12;11.70;97.90
47336;DHT22;33068;51.990;5.926;2023-06-04T02:40:42;11.80;98.00
47336;DHT22;33068;51.990;5.926;2023-06-04T02:43:09;11.70;98.10
47336;DHT22;33068;51.990;5.926;2023-06-04T02:45:37;11.60;98.20
47336;DHT22;33068;51.990;5.926;2023-06-04T02:48:04;11.50;98.30
47336;DHT22;33068;51.990;5.926;2023-06-04T02:50:31;11.50;98.40
47336;DHT22;33068;51.990;5.926;2023-06-04T02:52:58;11.50;98.50
47336;DHT22;33068;51.990;5.926;2023-06-04T02:55:26;11.50;98.60
47336;DHT22;33068;51.990;5.926;2023-06-04T02:57:54;11.50;98.80
47336;DHT22;33068;51.990;5.926;2023-06-04T03:00:22;11.50;99.00
47336;DHT22;33068;51.990;5.926;2023-06-04T03:02:49;11.40;99.10
47336;DHT22;33068;51.990;5.926;2023-06-04T03:05:17;11.30;99.30
47336;DHT22;33068;51.990;5.926;2023-06-04T03:07:47;11.30;99.60
47336;DHT22;33068;51.990;5.926;2023-06-04T03:10:16;11.30;99.80
47336;DHT22;33068;51.990;5.926;2023-06-04T03:12:44;11.20;99.90
47336;DHT22;33068;51.990;5.926;2023-06-04T03:15:14;11.20;99.90
47336;DHT22;33068;51.990;5.926;2023-06-04T03:17:41;11.10;99.90
47336;DHT22;33068;51.990;5.926;2023-06-04T03:20:10;11.10;99.90
47336;DHT22;33068;51.990;5.926;2023-06-04T03:22:39;11.10;99.90
47336;DHT22;33068;51.990;5.926;2023-06-04T03:25:07;11.10;99.90
47336;DHT22;33068;51.990;5.926;2023-06-04T03:27:34;11.10;99.90
47336;DHT22;33068;51.990;5.926;2023-06-04T03:30:04;11.10;99.90
47336;DHT22;33068;51.990;5.926;2023-06-04T03:32:49;11.00;99.90
47336;DHT22;33068;51.990;5.926;2023-06-04T03:35:16;11.00;99.90
47336;DHT22;33068;51.990;5.926;2023-06-04T03:37:43;11.00;99.90
47336;DHT22;33068;51.990;5.926;2023-06-04T03:40:16;11.10;99.90
47336;DHT22;33068;51.990;5.926;2023-06-04T03:42:48;11.00;99.90
47336;DHT22;33068;51.990;5.926;2023-06-04T03:45:20;10.90;99.90
47336;DHT22;33068;51.990;5.926;2023-06-04T03:47:51;10.90;99.90
47336;DHT22;33068;51.990;5.926;2023-06-04T03:50:18;10.90;99.90
47336;DHT22;33068;51.990;5.926;2023-06-04T03:52:45;10.90;99.90
47336;DHT22;33068;51.990;5.926;2023-06-04T03:55:12;10.90;99.90
47336;DHT22;33068;51.990;5.926;2023-06-04T03:57:40;10.90;99.90
47336;DHT22;33068;51.990;5.926;2023-06-04T04:00:10;10.90;99.90
47336;DHT22;33068;51.990;5.926;2023-06-04T04:02:47;10.90;99.90
47336;DHT22;33068;51.990;5.926;2023-06-04T04:05:22;10.90;99.90
47336;DHT22;33068;51.990;5.926;2023-06-04T04:07:50;10.90;99.90
47336;DHT22;33068;51.990;5.926;2023-06-04T04:10:21;10.90;99.90
47336;DHT22;33068;51.990;5.926;2023-06-04T04:12:48;10.90;99.90
47336;DHT22;33068;51.990;5.926;2023-06-04T04:15:18;10.90;99.90
47336;DHT22;33068;51.990;5.926;2023-06-04T04:17:45;11.00;99.90
47336;DHT22;33068;51.990;5.926;2023-06-04T04:20:15;11.00;99.90
47336;DHT22;33068;51.990;5.926;2023-06-04T04:22:50;11.00;99.90
47336;DHT22;33068;51.990;5.926;2023-06-04T04:25:20;11.00;99.90
47336;DHT22;33068;51.990;5.926;2023-06-04T04:27:47;11.00;99.90
47336;DHT22;33068;51.990;5.926;2023-06-04T04:30:14;11.00;99.90
47336;DHT22;33068;51.990;5.926;2023-06-04T04:32:45;11.00;99.90
47336;DHT22;33068;51.990;5.926;2023-06-04T04:35:16;11.00;99.90
47336;DHT22;33068;51.990;5.926;2023-06-04T04:37:45;11.00;99.90
47336;DHT22;33068;51.990;5.926;2023-06-04T04:40:17;11.00;99.90
47336;DHT22;33068;51.990;5.926;2023-06-04T04:42:48;11.10;99.90
47336;DHT22;33068;51.990;5.926;2023-06-04T04:45:16;11.20;99.90
47336;DHT22;33068;51.990;5.926;2023-06-04T04:47:44;11.20;99.90
47336;DHT22;33068;51.990;5.926;2023-06-04T04:50:20;11.20;99.90
47336;DHT22;33068;51.990;5.926;2023-06-04T04:52:51;11.30;99.90
47336;DHT22;33068;51.990;5.926;2023-06-04T04:55:26;11.30;99.90
47336;DHT22;33068;51.990;5.926;2023-06-04T04:57:54;11.40;99.90
47336;DHT22;33068;51.990;5.926;2023-06-04T05:00:23;11.40;99.90
47336;DHT22;33068;51.990;5.926;2023-06-04T05:02:53;11.40;99.90
47336;DHT22;33068;51.990;5.926;2023-06-04T05:05:20;11.60;99.90
47336;DHT22;33068;51.990;5.926;2023-06-04T05:07:49;11.80;99.90
47336;DHT22;33068;51.990;5.926;2023-06-04T05:10:18;11.90;99.90
47336;DHT22;33068;51.990;5.926;2023-06-04T05:12:54;11.90;99.90
47336;DHT22;33068;51.990;5.926;2023-06-04T05:15:31;12.00;99.90
47336;DHT22;33068;51.990;5.926;2023-06-04T05:17:59;12.20;99.90
47336;DHT22;33068;51.990;5.926;2023-06-04T05:20:31;12.30;99.90
47336;DHT22;33068;51.990;5.926;2023-06-04T05:23:01;12.30;99.90
47336;DHT22;33068;51.990;5.926;2023-06-04T05:25:30;12.40;99.90
47336;DHT22;33068;51.990;5.926;2023-06-04T05:28:00;12.50;99.90
47336;DHT22;33068;51.990;5.926;2023-06-04T05:30:30;12.60;99.90
47336;DHT22;33068;51.990;5.926;2023-06-04T05:32:59;12.60;99.90
47336;DHT22;33068;51.990;5.926;2023-06-04T05:35:28;12.70;99.90
47336;DHT22;33068;51.990;5.926;2023-06-04T05:37:55;12.80;99.90
47336;DHT22;33068;51.990;5.926;2023-06-04T05:40:29;12.90;99.90
47336;DHT22;33068;51.990;5.926;2023-06-04T05:42:56;13.00;99.90
47336;DHT22;33068;51.990;5.926;2023-06-04T05:45:25;13.20;99.90
47336;DHT22;33068;51.990;5.926;2023-06-04T05:47:53;13.20;99.90
47336;DHT22;33068;51.990;5.926;2023-06-04T05:50:21;13.40;99.90
47336;DHT22;33068;51.990;5.926;2023-06-04T05:52:49;13.50;99.90
47336;DHT22;33068;51.990;5.926;2023-06-04T05:55:16;13.70;99.90
47336;DHT22;33068;51.990;5.926;2023-06-04T05:57:45;13.80;99.90
47336;DHT22;33068;51.990;5.926;2023-06-04T06:00:18;14.00;99.90
47336;DHT22;33068;51.990;5.926;2023-06-04T06:02:55;13.70;99.00
47336;DHT22;33068;51.990;5.926;2023-06-04T06:05:48;14.10;99.30
47336;DHT22;33068;51.990;5.926;2023-06-04T06:08:17;14.30;99.20
47336;DHT22;33068;51.990;5.926;2023-06-04T06:10:44;14.50;99.00
47336;DHT22;33068;51.990;5.926;2023-06-04T06:13:12;14.70;98.00
47336;DHT22;33068;51.990;5.926;2023-06-04T06:15:39;14.80;98.20
47336;DHT22;33068;51.990;5.926;2023-06-04T06:18:08;15.00;97.50
47336;DHT22;33068;51.990;5.926;2023-06-04T06:20:38;15.20;96.90
47336;DHT22;33068;51.990;5.926;2023-06-04T06:23:07;15.20;96.70
47336;DHT22;33068;51.990;5.926;2023-06-04T06:25:38;15.10;97.20
47336;DHT22;33068;51.990;5.926;2023-06-04T06:28:12;15.30;96.50
47336;DHT22;33068;51.990;5.926;2023-06-04T06:30:42;15.50;95.90
47336;DHT22;33068;51.990;5.926;2023-06-04T06:33:12;15.60;96.00
47336;DHT22;33068;51.990;5.926;2023-06-04T06:35:39;15.70;96.10
47336;DHT22;33068;51.990;5.926;2023-06-04T06:38:06;15.80;95.00
47336;DHT22;33068;51.990;5.926;2023-06-04T06:40:33;15.90;95.20
47336;DHT22;33068;51.990;5.926;2023-06-04T06:43:01;16.00;95.50
47336;DHT22;33068;51.990;5.926;2023-06-04T06:45:28;16.20;94.90
47336;DHT22;33068;51.990;5.926;2023-06-04T06:47:55;16.40;94.70
47336;DHT22;33068;51.990;5.926;2023-06-04T06:50:24;16.60;94.20
47336;DHT22;33068;51.990;5.926;2023-06-04T06:52:51;16.70;94.20
47336;DHT22;33068;51.990;5.926;2023-06-04T06:55:19;16.90;93.90
47336;DHT22;33068;51.990;5.926;2023-06-04T06:57:46;17.10;93.60
47336;DHT22;33068;51.990;5.926;2023-06-04T07:00:14;17.30;92.90
47336;DHT22;33068;51.990;5.926;2023-06-04T07:02:45;17.30;92.90
47336;DHT22;33068;51.990;5.926;2023-06-04T07:05:14;17.10;93.00
47336;DHT22;33068;51.990;5.926;2023-06-04T07:07:44;17.60;92.50
47336;DHT22;33068;51.990;5.926;2023-06-04T07:10:12;17.70;92.10
47336;DHT22;33068;51.990;5.926;2023-06-04T07:12:40;17.80;91.40
47336;DHT22;33068;51.990;5.926;2023-06-04T07:15:07;17.80;92.10
47336;DHT22;33068;51.990;5.926;2023-06-04T07:17:37;17.80;91.60
47336;DHT22;33068;51.990;5.926;2023-06-04T07:20:06;17.80;91.50
47336;DHT22;33068;51.990;5.926;2023-06-04T07:22:35;17.90;91.10
47336;DHT22;33068;51.990;5.926;2023-06-04T07:25:04;17.90;91.00
47336;DHT22;33068;51.990;5.926;2023-06-04T07:27:34;18.20;91.10
47336;DHT22;33068;51.990;5.926;2023-06-04T07:30:01;18.40;91.40
47336;DHT22;33068;51.990;5.926;2023-06-04T07:32:28;18.30;92.00
47336;DHT22;33068;51.990;5.926;2023-06-04T07:34:55;18.50;91.50
47336;DHT22;33068;51.990;5.926;2023-06-04T07:37:23;18.70;91.20
47336;DHT22;33068;51.990;5.926;2023-06-04T07:39:50;18.90;91.00
47336;DHT22;33068;51.990;5.926;2023-06-04T07:42:22;19.10;90.80
47336;DHT22;33068;51.990;5.926;2023-06-04T07:44:49;19.30;90.80
47336;DHT22;33068;51.990;5.926;2023-06-04T07:47:16;19.50;89.10
47336;DHT22;33068;51.990;5.926;2023-06-04T07:49:43;19.40;87.40
47336;DHT22;33068;51.990;5.926;2023-06-04T07:52:11;19.20;87.50
47336;DHT22;33068;51.990;5.926;2023-06-04T07:54:39;19.10;90.60
47336;DHT22;33068;51.990;5.926;2023-06-04T07:57:07;19.10;90.30
47336;DHT22;33068;51.990;5.926;2023-06-04T07:59:37;19.70;87.90
47336;DHT22;33068;51.990;5.926;2023-06-04T08:02:05;20.20;83.80
47336;DHT22;33068;51.990;5.926;2023-06-04T08:04:32;20.60;80.40
47336;DHT22;33068;51.990;5.926;2023-06-04T08:06:59;21.30;81.50
47336;DHT22;33068;51.990;5.926;2023-06-04T08:09:28;21.50;81.90
47336;DHT22;33068;51.990;5.926;2023-06-04T08:11:56;22.50;80.60
47336;DHT22;33068;51.990;5.926;2023-06-04T08:14:25;23.30;76.60
47336;DHT22;33068;51.990;5.926;2023-06-04T08:16:54;23.90;75.70
47336;DHT22;33068;51.990;5.926;2023-06-04T08:19:21;24.40;74.70
47336;DHT22;33068;51.990;5.926;2023-06-04T08:21:49;24.80;74.50
47336;DHT22;33068;51.990;5.926;2023-06-04T08:24:19;24.80;74.40
47336;DHT22;33068;51.990;5.926;2023-06-04T08:26:49;24.50;71.90
47336;DHT22;33068;51.990;5.926;2023-06-04T08:29:17;24.30;69.80
47336;DHT22;33068;51.990;5.926;2023-06-04T08:31:44;23.80;66.80
47336;DHT22;33068;51.990;5.926;2023-06-04T08:34:12;24.20;70.60
47336;DHT22;33068;51.990;5.926;2023-06-04T08:36:40;24.10;70.30
47336;DHT22;33068;51.990;5.926;2023-06-04T08:39:08;24.40;69.80
47336;DHT22;33068;51.990;5.926;2023-06-04T08:41:42;24.30;69.80
47336;DHT22;33068;51.990;5.926;2023-06-04T08:44:12;24.50;70.20
47336;DHT22;33068;51.990;5.926;2023-06-04T08:46:39;24.70;70.60
47336;DHT22;33068;51.990;5.926;2023-06-04T08:49:07;24.20;69.10
47336;DHT22;33068;51.990;5.926;2023-06-04T08:51:37;23.90;70.20
47336;DHT22;33068;51.990;5.926;2023-06-04T08:54:05;24.00;69.10
47336;DHT22;33068;51.990;5.926;2023-06-04T08:56:33;23.60;67.10
47336;DHT22;33068;51.990;5.926;2023-06-04T08:59:03;23.60;71.20
47336;DHT22;33068;51.990;5.926;2023-06-04T09:01:31;24.00;70.40
47336;DHT22;33068;51.990;5.926;2023-06-04T09:04:01;23.90;70.60
47336;DHT22;33068;51.990;5.926;2023-06-04T09:06:29;23.90;68.00
47336;DHT22;33068;51.990;5.926;2023-06-04T09:08:59;23.80;67.50
47336;DHT22;33068;51.990;5.926;2023-06-04T09:11:33;23.70;69.60
47336;DHT22;33068;51.990;5.926;2023-06-04T09:14:02;24.20;70.30
47336;DHT22;33068;51.990;5.926;2023-06-04T09:17:02;24.40;67.20
47336;DHT22;33068;51.990;5.926;2023-06-04T09:19:29;24.60;64.90
47336;DHT22;33068;51.990;5.926;2023-06-04T09:22:01;24.70;66.00
47336;DHT22;33068;51.990;5.926;2023-06-04T09:24:44;24.50;66.00
47336;DHT22;33068;51.990;5.926;2023-06-04T09:27:17;24.50;67.70
47336;DHT22;33068;51.990;5.926;2023-06-04T09:29:50;24.60;63.80
47336;DHT22;33068;51.990;5.926;2023-06-04T09:32:21;24.40;65.80
47336;DHT22;33068;51.990;5.926;2023-06-04T09:34:49;24.20;64.50
47336;DHT22;33068;51.990;5.926;2023-06-04T09:37:16;24.10;65.90
47336;DHT22;33068;51.990;5.926;2023-06-04T09:39:52;24.00;62.40
47336;DHT22;33068;51.990;5.926;2023-06-04T09:42:20;24.20;64.00
47336;DHT22;33068;51.990;5.926;2023-06-04T09:44:48;24.70;64.10
47336;DHT22;33068;51.990;5.926;2023-06-04T09:47:16;24.90;65.60
47336;DHT22;33068;51.990;5.926;2023-06-04T09:49:43;24.80;64.00
47336;DHT22;33068;51.990;5.926;2023-06-04T09:52:11;25.10;63.00
47336;DHT22;33068;51.990;5.926;2023-06-04T09:54:40;25.30;62.20
47336;DHT22;33068;51.990;5.926;2023-06-04T09:57:16;25.10;61.00
47336;DHT22;33068;51.990;5.926;2023-06-04T09:59:48;24.90;62.00
47336;DHT22;33068;51.990;5.926;2023-06-04T10:02:19;24.80;63.80
47336;DHT22;33068;51.990;5.926;2023-06-04T10:04:51;24.60;63.60
47336;DHT22;33068;51.990;5.926;2023-06-04T10:07:22;24.80;60.80
47336;DHT22;33068;51.990;5.926;2023-06-04T10:09:52;24.80;62.50
47336;DHT22;33068;51.990;5.926;2023-06-04T10:12:23;24.60;64.20
47336;DHT22;33068;51.990;5.926;2023-06-04T10:14:54;24.60;63.40
47336;DHT22;33068;51.990;5.926;2023-06-04T10:17:24;24.90;64.50
47336;DHT22;33068;51.990;5.926;2023-06-04T10:19:54;25.20;63.30
47336;DHT22;33068;51.990;5.926;2023-06-04T10:22:22;25.20;61.90
47336;DHT22;33068;51.990;5.926;2023-06-04T10:24:51;25.50;61.40
47336;DHT22;33068;51.990;5.926;2023-06-04T10:27:18;25.40;61.80
47336;DHT22;33068;51.990;5.926;2023-06-04T10:29:49;25.70;61.70
47336;DHT22;33068;51.990;5.926;2023-06-04T10:32:17;25.80;62.50
47336;DHT22;33068;51.990;5.926;2023-06-04T10:34:47;25.80;61.50
47336;DHT22;33068;51.990;5.926;2023-06-04T10:37:19;25.60;61.90
47336;DHT22;33068;51.990;5.926;2023-06-04T10:39:51;25.70;62.10
47336;DHT22;33068;51.990;5.926;2023-06-04T10:42:19;25.30;60.70
47336;DHT22;33068;51.990;5.926;2023-06-04T10:44:49;25.00;62.40
47336;DHT22;33068;51.990;5.926;2023-06-04T10:47:20;25.30;63.90
47336;DHT22;33068;51.990;5.926;2023-06-04T10:49:52;24.90;61.50
47336;DHT22;33068;51.990;5.926;2023-06-04T10:52:21;24.70;63.60
47336;DHT22;33068;51.990;5.926;2023-06-04T10:54:48;24.90;62.20
47336;DHT22;33068;51.990;5.926;2023-06-04T10:57:19;24.90;63.40
47336;DHT22;33068;51.990;5.926;2023-06-04T10:59:59;25.30;61.30
47336;DHT22;33068;51.990;5.926;2023-06-04T11:02:27;25.40;63.10
47336;DHT22;33068;51.990;5.926;2023-06-04T11:05:01;25.30;62.40
47336;DHT22;33068;51.990;5.926;2023-06-04T11:07:41;24.80;65.10
47336;DHT22;33068;51.990;5.926;2023-06-04T11:10:09;24.60;64.20
47336;DHT22;33068;51.990;5.926;2023-06-04T11:12:46;24.90;63.70
47336;DHT22;33068;51.990;5.926;2023-06-04T11:15:15;25.00;62.70
47336;DHT22;33068;51.990;5.926;2023-06-04T11:17:50;25.00;62.90
47336;DHT22;33068;51.990;5.926;2023-06-04T11:20:18;24.90;63.50
47336;DHT22;33068;51.990;5.926;2023-06-04T11:22:53;24.60;62.50
47336;DHT22;33068;51.990;5.926;2023-06-04T11:25:21;24.70;62.30
47336;DHT22;33068;51.990;5.926;2023-06-04T11:27:49;25.00;63.30
47336;DHT22;33068;51.990;5.926;2023-06-04T11:30:20;25.10;61.90
47336;DHT22;33068;51.990;5.926;2023-06-04T11:32:49;25.20;62.50
47336;DHT22;33068;51.990;5.926;2023-06-04T11:35:27;25.20;62.60
47336;DHT22;33068;51.990;5.926;2023-06-04T11:37:56;25.40;62.10
47336;DHT22;33068;51.990;5.926;2023-06-04T11:40:24;25.30;61.90
47336;DHT22;33068;51.990;5.926;2023-06-04T11:42:52;25.30;64.00
47336;DHT22;33068;51.990;5.926;2023-06-04T11:45:22;25.30;62.80
47336;DHT22;33068;51.990;5.926;2023-06-04T11:47:52;25.70;63.00
47336;DHT22;33068;51.990;5.926;2023-06-04T11:50:20;25.40;62.70
47336;DHT22;33068;51.990;5.926;2023-06-04T11:52:47;25.60;61.80
47336;DHT22;33068;51.990;5.926;2023-06-04T11:55:15;25.50;64.70
47336;DHT22;33068;51.990;5.926;2023-06-04T11:57:46;25.30;62.30
47336;DHT22;33068;51.990;5.926;2023-06-04T12:00:15;25.50;61.60
47336;DHT22;33068;51.990;5.926;2023-06-04T12:02:51;25.60;61.30
47336;DHT22;33068;51.990;5.926;2023-06-04T12:05:20;25.80;63.20
47336;DHT22;33068;51.990;5.926;2023-06-04T12:07:50;25.60;62.20
47336;DHT22;33068;51.990;5.926;2023-06-04T12:10:17;25.80;61.40
47336;DHT22;33068;51.990;5.926;2023-06-04T12:12:45;25.70;62.70
47336;DHT22;33068;51.990;5.926;2023-06-04T12:15:19;25.30;61.30
47336;DHT22;33068;51.990;5.926;2023-06-04T12:17:51;25.00;61.40
47336;DHT22;33068;51.990;5.926;2023-06-04T12:20:27;25.00;61.80
47336;DHT22;33068;51.990;5.926;2023-06-04T12:22:57;25.50;62.60
47336;DHT22;33068;51.990;5.926;2023-06-04T12:25:25;25.80;61.80
47336;DHT22;33068;51.990;5.926;2023-06-04T12:27:53;25.90;61.80
47336;DHT22;33068;51.990;5.926;2023-06-04T12:30:20;25.40;61.80
47336;DHT22;33068;51.990;5.926;2023-06-04T12:32:48;25.50;61.60
47336;DHT22;33068;51.990;5.926;2023-06-04T12:35:19;25.50;60.90
47336;DHT22;33068;51.990;5.926;2023-06-04T12:37:46;25.60;61.30
47336;DHT22;33068;51.990;5.926;2023-06-04T12:40:13;25.90;61.30
47336;DHT22;33068;51.990;5.926;2023-06-04T12:42:40;25.80;60.20
47336;DHT22;33068;51.990;5.926;2023-06-04T12:45:10;25.80;62.50
47336;DHT22;33068;51.990;5.926;2023-06-04T12:47:40;25.60;61.90
47336;DHT22;33068;51.990;5.926;2023-06-04T12:50:08;25.80;61.80
47336;DHT22;33068;51.990;5.926;2023-06-04T12:52:39;26.30;60.70
47336;DHT22;33068;51.990;5.926;2023-06-04T12:55:08;26.50;61.80
47336;DHT22;33068;51.990;5.926;2023-06-04T12:57:35;26.60;64.50
47336;DHT22;33068;51.990;5.926;2023-06-04T13:00:02;27.00;63.00
47336;DHT22;33068;51.990;5.926;2023-06-04T13:02:30;27.50;59.10
47336;DHT22;33068;51.990;5.926;2023-06-04T13:04:57;26.40;59.90
47336;DHT22;33068;51.990;5.926;2023-06-04T13:07:27;26.20;60.90
47336;DHT22;33068;51.990;5.926;2023-06-04T13:09:55;26.40;63.20
47336;DHT22;33068;51.990;5.926;2023-06-04T13:12:23;26.60;60.00
47336;DHT22;33068;51.990;5.926;2023-06-04T13:14:50;26.80;59.50
47336;DHT22;33068;51.990;5.926;2023-06-04T13:17:17;27.10;60.40
47336;DHT22;33068;51.990;5.926;2023-06-04T13:19:44;27.40;59.90
47336;DHT22;33068;51.990;5.926;2023-06-04T13:22:11;27.20;59.30
47336;DHT22;33068;51.990;5.926;2023-06-04T13:24:38;26.50;59.70
47336;DHT22;33068;51.990;5.926;2023-06-04T13:27:07;26.50;61.70
47336;DHT22;33068;51.990;5.926;2023-06-04T13:29:34;26.70;59.70
47336;DHT22;33068;51.990;5.926;2023-06-04T13:32:01;26.90;60.00
47336;DHT22;33068;51.990;5.926;2023-06-04T13:34:31;26.90;61.90
47336;DHT22;33068;51.990;5.926;2023-06-04T13:36:58;27.00;61.30
47336;DHT22;33068;51.990;5.926;2023-06-04T13:39:26;26.90;61.00
47336;DHT22;33068;51.990;5.926;2023-06-04T13:41:56;26.90;60.40
47336;DHT22;33068;51.990;5.926;2023-06-04T13:44:26;27.30;59.10
47336;DHT22;33068;51.990;5.926;2023-06-04T13:46:54;27.60;59.20
47336;DHT22;33068;51.990;5.926;2023-06-04T13:49:21;27.60;58.80
47336;DHT22;33068;51.990;5.926;2023-06-04T13:51:48;27.80;58.00
47336;DHT22;33068;51.990;5.926;2023-06-04T13:54:15;27.80;58.40
47336;DHT22;33068;51.990;5.926;2023-06-04T13:56:44;27.40;59.70
47336;DHT22;33068;51.990;5.926;2023-06-04T13:59:11;27.70;59.40
47336;DHT22;33068;51.990;5.926;2023-06-04T14:01:40;27.30;59.60
47336;DHT22;33068;51.990;5.926;2023-06-04T14:04:07;27.30;59.10
47336;DHT22;33068;51.990;5.926;2023-06-04T14:06:35;27.60;59.80
47336;DHT22;33068;51.990;5.926;2023-06-04T14:09:05;28.00;58.80
47336;DHT22;33068;51.990;5.926;2023-06-04T14:11:35;28.40;59.20
47336;DHT22;33068;51.990;5.926;2023-06-04T14:14:02;28.40;59.30
47336;DHT22;33068;51.990;5.926;2023-06-04T14:16:29;28.00;59.80
47336;DHT22;33068;51.990;5.926;2023-06-04T14:18:58;27.60;58.60
47336;DHT22;33068;51.990;5.926;2023-06-04T14:21:26;27.60;60.70
47336;DHT22;33068;51.990;5.926;2023-06-04T14:23:56;27.80;60.60
47336;DHT22;33068;51.990;5.926;2023-06-04T14:26:24;28.00;58.80
47336;DHT22;33068;51.990;5.926;2023-06-04T14:28:54;27.80;59.20
47336;DHT22;33068;51.990;5.926;2023-06-04T14:31:22;28.00;60.00
47336;DHT22;33068;51.990;5.926;2023-06-04T14:33:49;28.40;59.20
47336;DHT22;33068;51.990;5.926;2023-06-04T14:36:17;28.50;60.40
47336;DHT22;33068;51.990;5.926;2023-06-04T14:38:46;28.90;58.10
47336;DHT22;33068;51.990;5.926;2023-06-04T14:41:14;28.70;58.30
47336;DHT22;33068;51.990;5.926;2023-06-04T14:43:41;28.30;57.20
47336;DHT22;33068;51.990;5.926;2023-06-04T14:46:11;28.50;58.10
47336;DHT22;33068;51.990;5.926;2023-06-04T14:48:38;28.30;57.40
47336;DHT22;33068;51.990;5.926;2023-06-04T14:51:05;27.90;59.50
47336;DHT22;33068;51.990;5.926;2023-06-04T14:53:34;28.40;59.10
47336;DHT22;33068;51.990;5.926;2023-06-04T14:56:04;28.80;59.20
47336;DHT22;33068;51.990;5.926;2023-06-04T14:58:31;29.00;58.70
47336;DHT22;33068;51.990;5.926;2023-06-04T15:00:59;28.90;58.20
47336;DHT22;33068;51.990;5.926;2023-06-04T15:03:29;28.70;58.90
47336;DHT22;33068;51.990;5.926;2023-06-04T15:05:56;29.20;58.10
47336;DHT22;33068;51.990;5.926;2023-06-04T15:08:24;29.10;57.20
47336;DHT22;33068;51.990;5.926;2023-06-04T15:10:52;29.40;58.20
47336;DHT22;33068;51.990;5.926;2023-06-04T15:13:20;29.20;59.30
47336;DHT22;33068;51.990;5.926;2023-06-04T15:15:47;29.40;58.40
47336;DHT22;33068;51.990;5.926;2023-06-04T15:18:14;29.70;57.10
47336;DHT22;33068;51.990;5.926;2023-06-04T15:20:41;29.90;56.50
47336;DHT22;33068;51.990;5.926;2023-06-04T15:23:08;29.90;56.30
47336;DHT22;33068;51.990;5.926;2023-06-04T15:25:36;29.80;57.70
47336;DHT22;33068;51.990;5.926;2023-06-04T15:28:06;29.80;57.50
47336;DHT22;33068;51.990;5.926;2023-06-04T15:30:33;29.90;57.10
47336;DHT22;33068;51.990;5.926;2023-06-04T15:33:00;30.10;56.70
47336;DHT22;33068;51.990;5.926;2023-06-04T15:35:29;30.10;56.90
47336;DHT22;33068;51.990;5.926;2023-06-04T15:37:57;30.30;57.80
47336;DHT22;33068;51.990;5.926;2023-06-04T15:40:24;30.40;56.70
47336;DHT22;33068;51.990;5.926;2023-06-04T15:42:51;29.90;56.30